Time;durP1;ratioP1;P1;durP2;ratioP2;P2;SDS_P1;SDS_P2;PMS_P1;PMS_P2;Temp;Humidity;BMP_temperature;BMP_pressure;BME280_temperature;BME280_humidity;BME280_pressure;Samples;Min_cycle;Max_cycle;Signal;HPM_P1;HPM_P2
2021/08/10 00:01:58;;;;;;;7.70;2.50;;;;;;;;;;5013492;28;20506;-79
2021/08/10 00:04:24;;;;;;;7.63;2.87;;;;;;;;;;5012846;28;20417;-79
2021/08/10 00:06:50;;;;;;;6.63;2.90;;;;;;;;;;4996046;28;20767;-78
2021/08/10 00:09:16;;;;;;;5.47;3.00;;;;;;;;;;5013365;28;20410;-78
2021/08/10 00:11:42;;;;;;;7.97;3.40;;;;;;;;;;5013344;28;20448;-81
2021/08/10 00:14:09;;;;;;;4.00;2.37;;;;;;;;;;5012856;28;20449;-79
2021/08/10 00:16:35;;;;;;;4.90;3.07;;;;;;;;;;5013091;28;20457;-77
2021/08/10 00:19:01;;;;;;;8.17;2.60;;;;;;;;;;5013095;28;20402;-80
2021/08/10 00:21:27;;;;;;;5.53;2.73;;;;;;;;;;5013008;28;20945;-81
2021/08/10 00:23:53;;;;;;;5.10;3.03;;;;;;;;;;4995418;28;20512;-79
2021/08/10 00:26:19;;;;;;;4.73;3.10;;;;;;;;;;5012869;28;20437;-79
2021/08/10 00:28:45;;;;;;;7.53;2.90;;;;;;;;;;5013182;28;20421;-80
2021/08/10 00:31:11;;;;;;;3.50;2.80;;;;;;;;;;5012938;28;20429;-78
2021/08/10 00:33:37;;;;;;;11.20;3.33;;;;;;;;;;5012453;28;20422;-79
2021/08/10 00:36:03;;;;;;;4.67;2.57;;;;;;;;;;5012717;28;20465;-79
2021/08/10 00:38:29;;;;;;;8.90;3.67;;;;;;;;;;5013025;28;20425;-78
2021/08/10 00:40:56;;;;;;;6.93;2.77;;;;;;;;;;5013179;28;20414;-79
2021/08/10 00:43:29;;;;;;;4.50;3.30;;;;;;;;;;5012549;28;20418;-81
2021/08/10 00:45:55;;;;;;;8.73;3.30;;;;;;;;;;5012898;28;20430;-79
2021/08/10 00:48:21;;;;;;;4.80;3.20;;;;;;;;;;5012818;28;20464;-80
2021/08/10 00:50:48;;;;;;;10.43;3.10;;;;;;;;;;5012766;28;20949;-80
2021/08/10 00:53:14;;;;;;;4.80;2.87;;;;;;;;;;5012501;28;20785;-79
2021/08/10 00:55:40;;;;;;;7.73;3.03;;;;;;;;;;4995135;28;20954;-78
2021/08/10 00:58:06;;;;;;;6.23;3.07;;;;;;;;;;5012678;28;20556;-80
2021/08/10 01:00:32;;;;;;;5.23;2.83;;;;;;;;;;5013060;28;20413;-79
2021/08/10 01:02:58;;;;;;;62.73;6.60;;;;;;;;;;5012392;28;20418;-78
2021/08/10 01:05:25;;;;;;;4.00;2.90;;;;;;;;;;5012760;28;20428;-78
2021/08/10 01:07:58;;;;;;;10.23;4.17;;;;;;;;;;5012723;28;20447;-78
2021/08/10 01:10:29;;;;;;;6.27;3.13;;;;;;;;;;5014732;28;20471;-78
2021/08/10 01:12:59;;;;;;;6.53;3.17;;;;;;;;;;5015947;28;20463;-77
2021/08/10 01:15:32;;;;;;;8.83;3.63;;;;;;;;;;5016005;28;20426;-79
2021/08/10 01:18:20;;;;;;;13.03;3.67;;;;;;;;;;5015932;28;20473;-80
2021/08/10 01:21:03;;;;;;;6.73;3.00;;;;;;;;;;5016079;28;20775;-78
2021/08/10 01:23:30;;;;;;;5.80;3.90;;;;;;;;;;5015541;28;20873;-78
2021/08/10 01:26:12;;;;;;;8.33;4.30;;;;;;;;;;5015580;28;20945;-78
2021/08/10 01:28:38;;;;;;;7.40;3.30;;;;;;;;;;5015806;28;20402;-80
2021/08/10 01:31:07;;;;;;;7.33;3.40;;;;;;;;;;5015768;28;20479;-76
2021/08/10 01:33:44;;;;;;;5.90;2.83;;;;;;;;;;5015326;28;20914;-79
2021/08/10 01:36:11;;;;;;;5.47;3.10;;;;;;;;;;5015373;28;20480;-79
2021/08/10 01:38:39;;;;;;;5.47;3.10;;;;;;;;;;5015689;28;20413;-77
2021/08/10 01:41:05;;;;;;;8.60;3.40;;;;;;;;;;5015665;28;20410;-77
2021/08/10 01:43:32;;;;;;;6.80;3.90;;;;;;;;;;5015220;28;20410;-78
2021/08/10 01:45:59;;;;;;;5.10;3.17;;;;;;;;;;5015195;28;20456;-80
2021/08/10 01:48:26;;;;;;;6.20;3.70;;;;;;;;;;4997907;28;20911;-78
2021/08/10 01:50:52;;;;;;;12.10;3.80;;;;;;;;;;5015403;28;20429;-77
2021/08/10 01:53:19;;;;;;;5.77;2.93;;;;;;;;;;5015085;28;20406;-80
2021/08/10 01:55:45;;;;;;;5.63;3.43;;;;;;;;;;5015174;28;20452;-78
2021/08/10 01:58:12;;;;;;;7.23;3.57;;;;;;;;;;5015474;28;20521;-78
2021/08/10 02:00:40;;;;;;;5.80;3.10;;;;;;;;;;5015450;28;20418;-78
2021/08/10 02:03:08;;;;;;;5.80;3.70;;;;;;;;;;5014999;28;20417;-78
2021/08/10 02:05:34;;;;;;;9.20;3.70;;;;;;;;;;5015146;28;20434;-78
2021/08/10 02:08:00;;;;;;;5.70;3.33;;;;;;;;;;5015029;28;20452;-80
2021/08/10 02:10:27;;;;;;;5.47;3.50;;;;;;;;;;5015047;28;20472;-78
2021/08/10 02:12:54;;;;;;;5.63;3.47;;;;;;;;;;5014651;28;20414;-79
2021/08/10 02:15:20;;;;;;;10.80;3.70;;;;;;;;;;5014981;28;20437;-79
2021/08/10 02:17:46;;;;;;;4.87;3.37;;;;;;;;;;5014961;28;20876;-78
2021/08/10 02:20:13;;;;;;;4.97;3.70;;;;;;;;;;5014438;28;20406;-78
2021/08/10 02:22:40;;;;;;;7.17;4.13;;;;;;;;;;4997184;28;20417;-78
2021/08/10 02:25:09;;;;;;;6.63;4.00;;;;;;;;;;5014502;28;20436;-77
2021/08/10 02:27:55;;;;;;;10.10;3.67;;;;;;;;;;5014645;28;20413;-77
2021/08/10 02:30:23;;;;;;;13.53;3.80;;;;;;;;;;5014343;28;20432;-78
2021/08/10 02:32:50;;;;;;;6.43;4.90;;;;;;;;;;4996710;28;21071;-80
2021/08/10 02:35:18;;;;;;;5.27;3.67;;;;;;;;;;5014383;28;20430;-78
2021/08/10 02:37:45;;;;;;;4.90;3.50;;;;;;;;;;5014519;28;20549;-79
2021/08/10 02:40:12;;;;;;;5.83;3.43;;;;;;;;;;5014443;28;20505;-80
2021/08/10 02:42:39;;;;;;;6.23;4.17;;;;;;;;;;5014445;28;20410;-79
2021/08/10 02:45:06;;;;;;;8.03;3.90;;;;;;;;;;5014201;28;20425;-78
2021/08/10 02:47:32;;;;;;;7.23;2.93;;;;;;;;;;4997183;28;20422;-80
2021/08/10 02:49:58;;;;;;;12.20;3.87;;;;;;;;;;5014502;28;20421;-79
2021/08/10 02:52:24;;;;;;;4.73;3.40;;;;;;;;;;5014236;28;20452;-80
2021/08/10 02:54:51;;;;;;;7.13;3.10;;;;;;;;;;5013927;28;20986;-79
2021/08/10 02:57:21;;;;;;;16.00;4.80;;;;;;;;;;5014163;28;20531;-78
2021/08/10 02:59:53;;;;;;;11.23;3.87;;;;;;;;;;5014227;28;20410;-79
2021/08/10 03:02:21;;;;;;;7.43;4.93;;;;;;;;;;5013927;28;20417;-78
2021/08/10 03:04:58;;;;;;;7.43;5.23;;;;;;;;;;5013787;28;20425;-79
2021/08/10 03:07:27;;;;;;;8.33;3.67;;;;;;;;;;5014244;28;20424;-78
2021/08/10 03:09:55;;;;;;;11.03;5.07;;;;;;;;;;5013933;28;20432;-78
2021/08/10 03:12:23;;;;;;;12.23;3.90;;;;;;;;;;5014032;28;20417;-79
2021/08/10 03:14:50;;;;;;;14.20;4.03;;;;;;;;;;4995781;28;20440;-79
2021/08/10 03:17:16;;;;;;;7.13;4.43;;;;;;;;;;5013944;28;20465;-79
2021/08/10 03:19:42;;;;;;;10.97;4.60;;;;;;;;;;5013897;28;20417;-80
2021/08/10 03:22:08;;;;;;;9.27;4.47;;;;;;;;;;4996218;28;20504;-79
2021/08/10 03:24:34;;;;;;;8.93;4.70;;;;;;;;;;4979614;28;20496;-81
2021/08/10 03:27:04;;;;;;;11.83;5.20;;;;;;;;;;5013724;28;20445;-80
2021/08/10 03:29:30;;;;;;;7.17;3.93;;;;;;;;;;5013652;28;20417;-81
2021/08/10 03:31:56;;;;;;;8.03;4.40;;;;;;;;;;5013006;28;20441;-81
2021/08/10 03:34:23;;;;;;;7.60;4.20;;;;;;;;;;5013269;28;20432;-80
2021/08/10 03:36:50;;;;;;;10.17;4.20;;;;;;;;;;4995639;28;20480;-79
2021/08/10 03:39:16;;;;;;;6.90;3.87;;;;;;;;;;5013543;28;20917;-82
2021/08/10 03:41:43;;;;;;;8.53;4.70;;;;;;;;;;5013631;28;20417;-79
2021/08/10 03:44:09;;;;;;;7.53;4.40;;;;;;;;;;5013309;28;20457;-81
2021/08/10 03:46:35;;;;;;;8.77;4.47;;;;;;;;;;5013365;28;20441;-81
2021/08/10 03:49:02;;;;;;;10.97;4.97;;;;;;;;;;5013373;28;20429;-82
2021/08/10 03:51:29;;;;;;;10.43;4.07;;;;;;;;;;5013394;28;20905;-78
2021/08/10 03:53:55;;;;;;;6.90;4.30;;;;;;;;;;5013328;28;20406;-80
2021/08/10 03:56:23;;;;;;;6.57;4.03;;;;;;;;;;5013293;28;20473;-80
2021/08/10 03:58:49;;;;;;;12.23;3.70;;;;;;;;;;4995868;28;20505;-80
2021/08/10 04:01:15;;;;;;;7.40;4.00;;;;;;;;;;5013034;28;20414;-80
2021/08/10 04:03:42;;;;;;;8.50;4.17;;;;;;;;;;4995402;28;20422;-81
2021/08/10 04:06:08;;;;;;;7.03;3.80;;;;;;;;;;4995915;28;20516;-80
2021/08/10 04:08:35;;;;;;;6.17;3.20;;;;;;;;;;5013379;28;20452;-77
2021/08/10 04:11:01;;;;;;;7.07;4.13;;;;;;;;;;5013141;28;20409;-78
2021/08/10 04:13:27;;;;;;;10.60;4.10;;;;;;;;;;5012951;28;20485;-80
2021/08/10 04:15:53;;;;;;;5.53;3.90;;;;;;;;;;5013057;28;20536;-77
2021/08/10 04:18:20;;;;;;;7.93;4.20;;;;;;;;;;5013169;28;20489;-78
2021/08/10 04:20:47;;;;;;;9.30;4.83;;;;;;;;;;5013167;28;20414;-79
2021/08/10 04:23:13;;;;;;;7.60;3.87;;;;;;;;;;5012692;28;20413;-80
2021/08/10 04:25:40;;;;;;;13.47;3.97;;;;;;;;;;5013024;28;20472;-79
2021/08/10 04:28:06;;;;;;;7.00;3.90;;;;;;;;;;5013212;28;20414;-80
2021/08/10 04:30:32;;;;;;;9.70;4.00;;;;;;;;;;5013037;28;20417;-77
2021/08/10 04:32:58;;;;;;;6.77;4.10;;;;;;;;;;5012537;28;20504;-78
2021/08/10 04:35:25;;;;;;;7.37;4.30;;;;;;;;;;5012765;28;20433;-78
2021/08/10 04:37:51;;;;;;;7.63;4.43;;;;;;;;;;5012835;28;20481;-78
2021/08/10 04:40:17;;;;;;;13.57;4.87;;;;;;;;;;5012973;28;20428;-80
2021/08/10 04:42:43;;;;;;;10.33;4.40;;;;;;;;;;5014104;28;20429;-78
2021/08/10 04:45:09;;;;;;;10.30;4.43;;;;;;;;;;5016753;28;20464;-79
2021/08/10 04:47:35;;;;;;;12.20;4.20;;;;;;;;;;5016810;28;20476;-79
2021/08/10 04:50:01;;;;;;;12.43;4.80;;;;;;;;;;5016692;28;20422;-80
2021/08/10 04:52:27;;;;;;;13.97;4.20;;;;;;;;;;5016662;28;20755;-79
2021/08/10 04:54:56;;;;;;;12.03;4.60;;;;;;;;;;5015997;28;20536;-80
2021/08/10 04:57:22;;;;;;;6.83;3.80;;;;;;;;;;4999163;28;20480;-80
2021/08/10 04:59:50;;;;;;;14.40;5.37;;;;;;;;;;5016617;28;20895;-79
2021/08/10 05:02:16;;;;;;;8.83;5.00;;;;;;;;;;4998427;28;20426;-78
2021/08/10 05:04:43;;;;;;;9.17;4.80;;;;;;;;;;4998266;28;20511;-79
2021/08/10 05:07:09;;;;;;;19.70;4.70;;;;;;;;;;5016203;28;20437;-80
2021/08/10 05:09:35;;;;;;;12.50;3.90;;;;;;;;;;4998971;28;20468;-81
2021/08/10 05:12:01;;;;;;;7.67;4.30;;;;;;;;;;5016265;28;20409;-81
2021/08/10 05:14:27;;;;;;;7.17;3.90;;;;;;;;;;5015715;28;20406;-79
2021/08/10 05:16:53;;;;;;;9.07;4.67;;;;;;;;;;5016038;28;20800;-79
2021/08/10 05:19:19;;;;;;;9.43;4.07;;;;;;;;;;5016044;28;20405;-80
2021/08/10 05:21:45;;;;;;;5.47;4.37;;;;;;;;;;5016018;28;20899;-80
2021/08/10 05:24:11;;;;;;;7.80;3.80;;;;;;;;;;5015725;28;20788;-79
2021/08/10 05:26:37;;;;;;;7.00;4.20;;;;;;;;;;5015791;28;20429;-80
2021/08/10 05:29:03;;;;;;;7.20;4.10;;;;;;;;;;5015870;28;20409;-81
2021/08/10 05:31:29;;;;;;;7.43;4.20;;;;;;;;;;5015660;28;20444;-80
2021/08/10 05:33:55;;;;;;;5.70;4.43;;;;;;;;;;5015311;28;20763;-80
2021/08/10 05:36:21;;;;;;;5.13;4.43;;;;;;;;;;5015348;28;20484;-78
2021/08/10 05:38:49;;;;;;;7.60;4.07;;;;;;;;;;5015438;28;20410;-80
2021/08/10 05:41:16;;;;;;;11.90;4.20;;;14.80;99.90;;;;;;5015459;28;20421;-78
2021/08/10 05:43:42;;;;;;;9.70;4.50;;;14.90;99.90;;;;;;5015209;28;20483;-79
2021/08/10 05:46:08;;;;;;;7.37;4.40;;;14.90;99.90;;;;;;5015487;28;20583;-81
2021/08/10 05:48:36;;;;;;;10.53;5.07;;;;;;;;;;5015627;28;20175;-81
2021/08/10 05:51:04;;;;;;;9.50;5.23;;;;;;;;;;5015461;28;20664;-82
2021/08/10 05:53:31;;;;;;;8.43;5.00;;;;;;;;;;5015007;28;20493;-81
2021/08/10 05:55:57;;;;;;;5.80;4.60;;;;;;;;;;4996945;28;20520;-80
2021/08/10 05:58:23;;;;;;;7.07;4.63;;;;;;;;;;5015182;28;20513;-79
2021/08/10 06:00:49;;;;;;;9.87;4.20;;;;;;;;;;5015348;28;20410;-78
2021/08/10 06:03:17;;;;;;;9.97;4.83;;;;;;;;;;5014975;28;20472;-78
2021/08/10 06:05:43;;;;;;;9.53;5.17;;;15.10;99.90;;;;;;4997503;28;20470;-79
2021/08/10 06:08:11;;;;;;;7.70;4.40;;;15.40;99.90;;;;;;5015014;28;20933;-77
2021/08/10 06:10:39;;;;;;;10.07;5.03;;;;;;;;;;5015402;28;20198;-78
2021/08/10 06:13:07;;;;;;;6.83;4.80;;;;;;;;;;5014874;28;20787;-78
2021/08/10 06:15:34;;;;;;;9.53;4.53;;;;;;;;;;4997302;28;20948;-78
2021/08/10 06:18:02;;;;;;;11.03;5.00;;;;;;;;;;5014654;28;20488;-78
2021/08/10 06:20:29;;;;;;;9.70;4.97;;;;;;;;;;5014792;28;20835;-77
2021/08/10 06:23:00;;;;;;;10.93;4.67;;;;;;;;;;5014511;28;20418;-78
2021/08/10 06:25:28;;;;;;;5.87;5.13;;;;;;;;;;5014740;28;20426;-77
2021/08/10 06:27:55;;;;;;;6.60;4.97;;;;;;;;;;5014640;28;20501;-78
2021/08/10 06:30:23;;;;;;;6.03;4.23;;;;;;;;;;4997063;28;20449;-78
2021/08/10 06:32:49;;;;;;;5.10;4.50;;;;;;;;;;5014334;28;20636;-78
2021/08/10 06:35:18;;;;;;;8.33;5.10;;;;;;;;;;5014416;28;20484;-77
2021/08/10 06:37:45;;;;;;;8.27;4.40;;;;;;;;;;5014412;28;20560;-77
2021/08/10 06:40:13;;;;;;;6.57;4.30;;;;;;;;;;4996610;28;20968;-78
2021/08/10 06:42:38;;;;;;;5.10;4.27;;;16.20;99.90;;;;;;5014387;28;20414;-78
2021/08/10 06:45:05;;;;;;;10.63;4.47;;;;;;;;;;5014090;28;20479;-78
2021/08/10 06:47:30;;;;;;;4.77;3.97;;;16.20;99.90;;;;;;5014401;28;20209;-79
2021/08/10 06:49:56;;;;;;;6.33;4.03;;;16.20;99.90;;;;;;5014481;28;20453;-78
2021/08/10 06:52:21;;;;;;;6.80;5.00;;;15.80;99.90;;;;;;5014476;28;20179;-80
2021/08/10 06:54:47;;;;;;;8.13;4.40;;;16.60;99.90;;;;;;5013864;28;20253;-78
2021/08/10 06:57:13;;;;;;;6.80;3.90;;;16.00;99.90;;;;;;5014242;28;20206;-79
2021/08/10 06:59:38;;;;;;;10.37;4.67;;;16.30;99.90;;;;;;5014367;28;20179;-78
2021/08/10 07:02:06;;;;;;;7.20;4.23;;;16.50;99.90;;;;;;5014189;28;20711;-77
2021/08/10 07:04:32;;;;;;;5.33;4.07;;;16.80;99.90;;;;;;5013494;28;20620;-80
2021/08/10 07:07:02;;;;;;;6.83;4.10;;;16.60;99.90;;;;;;5013264;28;20520;-78
2021/08/10 07:09:27;;;;;;;7.30;4.17;;;16.70;99.90;;;;;;5013961;28;20763;-79
2021/08/10 07:11:53;;;;;;;5.43;3.83;;;16.80;99.90;;;;;;5014030;28;20433;-79
2021/08/10 07:14:19;;;;;;;11.50;4.40;;;;;;;;;;5013438;28;20182;-80
2021/08/10 07:16:48;;;;;;;6.20;4.60;;;;;;;;;;5014050;28;20194;-78
2021/08/10 07:19:16;;;;;;;9.27;3.60;;;17.50;99.90;;;;;;5014066;28;20492;-80
2021/08/10 07:21:45;;;;;;;6.10;3.77;;;;;;;;;;5013687;28;20417;-80
2021/08/10 07:24:11;;;;;;;5.37;3.07;;;;;;;;;;5013563;28;20434;-78
2021/08/10 07:26:38;;;;;;;4.47;3.67;;;;;;;;;;5013545;28;20441;-79
2021/08/10 07:29:06;;;;;;;7.27;4.23;;;;;;;;;;5013848;28;20439;-81
2021/08/10 07:31:32;;;;;;;4.50;3.20;;;;;;;;;;5013692;28;20430;-80
2021/08/10 07:33:57;;;;;;;4.40;3.53;;;17.70;99.90;;;;;;5013284;28;20765;-81
2021/08/10 07:36:23;;;;;;;4.93;3.07;;;17.90;99.90;;;;;;5013322;28;20432;-80
2021/08/10 07:38:48;;;;;;;4.03;2.77;;;18.10;99.90;;;;;;5013536;28;20213;-80
2021/08/10 07:41:14;;;;;;;4.30;3.20;;;18.10;99.90;;;;;;5013582;28;20647;-79
2021/08/10 07:43:40;;;;;;;3.17;2.90;;;18.00;99.90;;;;;;5013203;28;20182;-80
2021/08/10 07:46:06;;;;;;;3.57;2.93;;;18.30;99.90;;;;;;5013468;28;20210;-79
2021/08/10 07:48:31;;;;;;;5.17;3.23;;;18.40;99.90;;;;;;5013391;28;20179;-80
2021/08/10 07:50:58;;;;;;;4.03;2.87;;;18.50;99.90;;;;;;4995875;28;20417;-79
2021/08/10 07:53:24;;;;;;;4.10;2.77;;;18.50;99.90;;;;;;5013103;28;20178;-80
2021/08/10 07:55:51;;;;;;;6.30;3.00;;;18.60;99.90;;;;;;4995715;28;20456;-80
2021/08/10 07:58:18;;;;;;;4.00;3.50;;;18.70;99.90;;;;;;4996004;28;20988;-78
2021/08/10 08:00:44;;;;;;;3.87;3.23;;;18.70;99.90;;;;;;5013209;28;20405;-80
2021/08/10 08:03:12;;;;;;;6.80;3.30;;;18.80;99.90;;;;;;5012990;28;20472;-81
2021/08/10 08:05:38;;;;;;;5.20;3.10;;;19.00;99.90;;;;;;5013193;28;20520;-78
2021/08/10 08:08:04;;;;;;;5.70;2.70;;;19.20;99.90;;;;;;5013268;28;20422;-80
2021/08/10 08:10:30;;;;;;;4.60;2.97;;;19.00;99.90;;;;;;5013419;28;20878;-79
2021/08/10 08:12:56;;;;;;;6.60;3.37;;;18.90;99.90;;;;;;4995597;28;20472;-79
2021/08/10 08:15:21;;;;;;;3.13;2.77;;;18.90;99.90;;;;;;5013226;28;20441;-78
2021/08/10 08:17:47;;;;;;;6.60;2.80;;;19.00;99.90;;;;;;5014586;28;20238;-79
2021/08/10 08:20:13;;;;;;;3.40;2.77;;;19.30;99.90;;;;;;5017182;28;20179;-78
2021/08/10 08:22:39;;;;;;;5.63;3.60;;;19.50;99.90;;;;;;4999455;28;20206;-78
2021/08/10 08:25:05;;;;;;;3.67;2.70;;;19.40;99.90;;;;;;5016769;28;20443;-78
2021/08/10 08:27:31;;;;;;;3.80;2.73;;;19.30;99.90;;;;;;5016964;28;20190;-79
2021/08/10 08:29:58;;;;;;;6.27;2.93;;;19.40;99.90;;;;;;5016991;28;20859;-78
2021/08/10 08:32:23;;;;;;;5.67;3.20;;;19.40;99.90;;;;;;5016903;28;20781;-79
2021/08/10 08:34:49;;;;;;;4.60;2.83;;;19.60;99.90;;;;;;5016430;28;20449;-78
2021/08/10 08:37:17;;;;;;;7.07;2.93;;;19.60;99.90;;;;;;5016406;28;20214;-78
2021/08/10 08:39:42;;;;;;;4.63;3.13;;;19.60;99.90;;;;;;5016729;28;20175;-78
2021/08/10 08:42:12;;;;;;;4.83;2.70;;;19.70;99.90;;;;;;5016943;28;20414;-78
2021/08/10 08:44:37;;;;;;;3.43;2.67;;;19.70;99.90;;;;;;5016065;28;20194;-79
2021/08/10 08:47:07;;;;;;;5.60;3.13;;;19.80;99.90;;;;;;5016412;28;20909;-79
2021/08/10 08:49:34;;;;;;;5.30;2.80;;;19.60;99.90;;;;;;5016733;28;20185;-79
2021/08/10 08:52:03;;;;;;;4.27;2.93;;;19.60;99.90;;;;;;5016629;28;20406;-78
2021/08/10 08:54:31;;;;;;;4.50;2.90;;;19.50;99.90;;;;;;4998529;28;20399;-79
2021/08/10 08:56:57;;;;;;;5.00;3.20;;;19.50;99.90;;;;;;5016824;28;20436;-78
2021/08/10 08:59:25;;;;;;;5.73;3.20;;;19.50;99.90;;;;;;5016586;28;20418;-78
2021/08/10 09:01:52;;;;;;;5.10;2.83;;;19.30;99.90;;;;;;5016694;28;20175;-78
2021/08/10 09:04:18;;;;;;;6.17;2.70;;;19.10;99.90;;;;;;5015988;28;20445;-78
2021/08/10 09:06:44;;;;;;;3.70;3.07;;;19.00;99.90;;;;;;5016356;28;20501;-80
2021/08/10 09:09:24;;;;;;;7.67;3.30;;;18.70;99.90;;;;;;5016283;28;20409;-80
2021/08/10 09:11:53;;;;;;;4.17;2.60;;;18.60;99.90;;;;;;5016505;28;20403;-79
2021/08/10 09:14:20;;;;;;;4.30;2.77;;;;;;;;;;5015795;28;20414;-81
2021/08/10 09:17:02;;;;;;;6.63;2.90;;;;;;;;;;5016184;28;20489;-80
2021/08/10 09:19:47;;;;;;;11.77;4.20;;;18.30;99.90;;;;;;5016050;28;20414;-80
2021/08/10 09:22:34;;;;;;;3.43;2.70;;;18.50;99.90;;;;;;4998558;28;20782;-80
2021/08/10 09:25:12;;;;;;;6.67;3.60;;;18.30;99.90;;;;;;5015618;28;20433;-79
2021/08/10 09:27:42;;;;;;;8.30;4.53;;;18.40;99.90;;;;;;5015950;28;20452;-78
2021/08/10 09:30:14;;;;;;;3.80;3.07;;;18.40;99.90;;;;;;4997253;28;21010;-79
2021/08/10 09:33:00;;;;;;;10.10;3.40;;;18.40;99.90;;;;;;5015908;28;20505;-78
2021/08/10 09:35:31;;;;;;;5.30;3.30;;;18.70;99.90;;;;;;5015362;28;20425;-79
2021/08/10 09:38:17;;;;;;;9.17;3.90;;;18.50;99.90;;;;;;5015669;28;20439;-81
2021/08/10 09:40:44;;;;;;;6.97;3.00;;;;;;;;;;5015534;28;20500;-82
2021/08/10 09:43:27;;;;;;;6.20;3.03;;;;;;;;;;5015321;28;20472;-83
2021/08/10 09:46:06;;;;;;;5.53;2.37;;;19.30;99.90;;;;;;5015464;28;20422;-80
2021/08/10 09:48:32;;;;;;;3.60;2.53;;;20.00;99.90;;;;;;5015675;28;20412;-80
2021/08/10 09:51:05;;;;;;;4.27;3.20;;;19.80;99.90;;;;;;5015560;28;20385;-80
2021/08/10 09:53:31;;;;;;;3.17;2.60;;;19.90;99.90;;;;;;5015141;28;20384;-83
2021/08/10 09:55:58;;;;;;;3.80;2.70;;;20.20;99.90;;;;;;4998201;28;20449;-81
2021/08/10 09:58:24;;;;;;;3.53;2.83;;;20.20;99.90;;;;;;4998092;28;20209;-79
2021/08/10 10:00:51;;;;;;;4.30;2.80;;;19.90;99.90;;;;;;5015533;28;20513;-81
2021/08/10 10:03:21;;;;;;;4.20;2.97;;;19.80;99.90;;;;;;5014994;28;20471;-82
2021/08/10 10:05:47;;;;;;;3.93;2.87;;;19.90;99.90;;;;;;5015055;28;20444;-82
2021/08/10 10:08:24;;;;;;;3.33;2.97;;;;;;;;;;5015155;28;20456;-80
2021/08/10 10:10:54;;;;;;;6.30;2.87;;;;;;;;;;5015557;28;20712;-80
2021/08/10 10:13:21;;;;;;;3.80;2.63;;;20.60;99.90;;;;;;5014815;28;20389;-80
2021/08/10 10:15:50;;;;;;;2.60;2.20;;;;;;;;;;5014917;28;20419;-79
2021/08/10 10:18:17;;;;;;;3.07;2.50;;;;;;;;;;5015115;28;20449;-80
2021/08/10 10:20:49;;;;;;;5.30;2.53;;;;;;;;;;5014883;28;20383;-80
2021/08/10 10:23:20;;;;;;;3.60;2.70;;;;;;;;;;5014594;28;20376;-78
2021/08/10 10:25:50;;;;;;;7.80;3.40;;;;;;;;;;5014764;28;20479;-79
2021/08/10 10:28:18;;;;;;;2.97;2.67;;;;;;;;;;5014849;28;20439;-83
2021/08/10 10:30:46;;;;;;;5.33;2.53;;;;;;;;;;5014831;28;20500;-82
2021/08/10 10:33:14;;;;;;;4.70;3.10;;;21.60;99.90;;;;;;4996836;28;20488;-81
2021/08/10 10:35:41;;;;;;;3.37;2.80;;;;;;;;;;5014523;28;20453;-79
2021/08/10 10:38:08;;;;;;;3.33;2.87;;;;;;;;;;5014350;28;20457;-81
2021/08/10 10:40:36;;;;;;;3.17;2.53;;;;;;;;;;5014384;28;20414;-79
2021/08/10 10:43:03;;;;;;;3.63;3.33;;;;;;;;;;4997033;28;20412;-80
2021/08/10 10:45:35;;;;;;;3.93;3.20;;;;;;;;;;4996958;28;20519;-81
2021/08/10 10:48:01;;;;;;;5.30;3.20;;;;;;;;;;5014167;28;20468;-79
2021/08/10 10:50:29;;;;;;;4.53;3.30;;;;;;;;;;5014277;28;20405;-84
2021/08/10 10:53:00;;;;;;;4.23;2.77;;;;;;;;;;5014160;28;20427;-81
2021/08/10 10:55:34;;;;;;;3.50;2.80;;;;;;;;;;5014241;28;20915;-82
2021/08/10 10:58:01;;;;;;;5.13;2.93;;;;;;;;;;5014035;28;20431;-83
2021/08/10 11:00:29;;;;;;;6.13;3.13;;;22.00;99.90;;;;;;5014023;28;20464;-78
2021/08/10 11:03:12;;;;;;;5.87;2.67;;;22.10;99.90;;;;;;5013772;28;20384;-82
2021/08/10 11:05:39;;;;;;;10.53;3.00;;;;;;;;;;4996674;28;20415;-81
2021/08/10 11:08:06;;;;;;;5.27;2.53;;;22.10;99.90;;;;;;5014232;28;20483;-82
2021/08/10 11:10:48;;;;;;;4.13;2.50;;;22.40;99.90;;;;;;5013946;28;20487;-80
2021/08/10 11:13:16;;;;;;;5.60;2.80;;;22.10;99.90;;;;;;5013805;28;20405;-81
2021/08/10 11:15:45;;;;;;;2.93;2.20;;;22.00;99.90;;;;;;5013864;28;20441;-78
2021/08/10 11:18:11;;;;;;;5.03;2.80;;;22.10;99.90;;;;;;5013773;28;20782;-81
2021/08/10 11:20:41;;;;;;;2.77;2.20;;;22.20;99.90;;;;;;5013786;28;20441;-82
2021/08/10 11:23:19;;;;;;;4.43;2.90;;;22.60;99.90;;;;;;5013608;28;20244;-82
2021/08/10 11:25:45;;;;;;;3.27;2.10;;;;;;;;;;5014386;28;20440;-82
2021/08/10 11:28:30;;;;;;;6.17;2.83;;;;;;;;;;5013995;28;20384;-81
2021/08/10 11:30:58;;;;;;;3.10;2.60;;;23.40;99.90;;;;;;4996317;28;20792;-79
2021/08/10 11:33:31;;;;;;;2.23;2.00;;;23.40;99.90;;;;;;5013510;28;20477;-82
2021/08/10 11:36:12;;;;;;;3.23;2.20;;;23.50;99.90;;;;;;5013573;28;20461;-80
2021/08/10 11:38:44;;;;;;;4.40;3.20;;;23.90;99.90;;;;;;5013396;28;20469;-80
2021/08/10 11:41:18;;;;;;;3.53;2.37;;;23.80;99.90;;;;;;5013560;28;20410;-82
2021/08/10 11:43:46;;;;;;;3.70;2.80;;;23.60;99.90;;;;;;5013386;28;20405;-80
2021/08/10 11:46:18;;;;;;;2.73;2.27;;;23.70;99.90;;;;;;5013356;28;20433;-80
2021/08/10 11:48:52;;;;;;;2.40;2.20;;;24.00;99.90;;;;;;5013432;28;20424;-78
2021/08/10 11:51:38;;;;;;;3.40;2.03;;;24.50;99.90;;;;;;5013537;28;20429;-78
2021/08/10 11:54:23;;;;;;;3.47;2.43;;;24.60;99.90;;;;;;5012833;28;20418;-78
2021/08/10 11:56:55;;;;;;;2.80;2.33;;;;;;;;;;5013403;28;20464;-80
2021/08/10 11:59:25;;;;;;;5.10;2.20;;;;;;;;;;5013294;28;20487;-81
2021/08/10 12:01:54;;;;;;;3.40;2.20;;;;;;;;;;5013315;28;20390;-80
2021/08/10 12:04:22;;;;;;;5.40;3.50;;;;;;;;;;5012984;28;20406;-79
2021/08/10 12:06:50;;;;;;;3.93;2.73;;;;;;;;;;5013271;28;20917;-81
2021/08/10 12:09:17;;;;;;;4.00;2.40;;;;;;;;;;5013261;28;20769;-79
2021/08/10 12:11:47;;;;;;;3.00;2.23;;;;;;;;;;5013235;28;20421;-78
2021/08/10 12:14:17;;;;;;;3.10;2.60;;;;;;;;;;5013123;28;20413;-80
2021/08/10 12:16:57;;;;;;;2.60;2.33;;;;;;;;;;5013390;28;20421;-79
2021/08/10 12:19:30;;;;;;;2.53;2.33;;;;;;;;;;4995473;28;20468;-80
2021/08/10 12:21:57;;;;;;;7.60;3.00;;;;;;;;;;5013095;28;20406;-79
2021/08/10 12:24:28;;;;;;;3.63;2.50;;;;;;;;;;5012937;28;20402;-79
2021/08/10 12:26:54;;;;;;;3.93;2.73;;;;;;;;;;5013165;28;20410;-78
2021/08/10 12:29:21;;;;;;;7.13;2.93;;;;;;;;;;4995485;28;20399;-80
2021/08/10 12:31:49;;;;;;;3.50;2.33;;;;;;;;;;5013155;28;20456;-80
2021/08/10 12:34:17;;;;;;;2.67;2.40;;;;;;;;;;5012603;28;20410;-80
2021/08/10 12:36:55;;;;;;;3.73;2.27;;;;;;;;;;5012756;28;20525;-80
2021/08/10 12:39:23;;;;;;;4.23;2.90;;;;;;;;;;5012834;28;20453;-79
2021/08/10 12:41:52;;;;;;;4.73;2.67;;;;;;;;;;5012985;28;20410;-82
2021/08/10 12:44:19;;;;;;;5.47;3.20;;;;;;;;;;5012557;28;20769;-78
2021/08/10 12:46:47;;;;;;;3.13;2.57;;;;;;;;;;5012825;28;20413;-78
2021/08/10 12:49:18;;;;;;;7.40;3.20;;;;;;;;;;5012818;28;20512;-78
2021/08/10 12:51:57;;;;;;;4.00;2.47;;;;;;;;;;5012952;28;20448;-78
2021/08/10 12:54:26;;;;;;;2.63;2.43;;;;;;;;;;5012459;28;20441;-81
2021/08/10 12:56:54;;;;;;;3.43;2.93;;;;;;;;;;5012776;28;20406;-79
2021/08/10 12:59:22;;;;;;;4.03;2.57;;;;;;;;;;5012681;28;20974;-79
2021/08/10 13:01:50;;;;;;;3.33;2.97;;;;;;;;;;5012881;28;20520;-80
2021/08/10 13:04:18;;;;;;;5.00;2.40;;;;;;;;;;5014385;28;20446;-78
2021/08/10 13:06:46;;;;;;;4.47;2.50;;;;;;;;;;5016602;28;20506;-79
2021/08/10 13:09:14;;;;;;;2.63;2.30;;;;;;;;;;4982836;28;20509;-79
2021/08/10 13:11:41;;;;;;;3.20;2.80;;;;;;;;;;4999062;28;20418;-78
2021/08/10 13:14:12;;;;;;;3.50;2.83;;;;;;;;;;5016102;28;20889;-80
2021/08/10 13:16:41;;;;;;;3.50;3.20;;;;;;;;;;5016356;28;20410;-81
2021/08/10 13:19:13;;;;;;;5.40;3.40;;;;;;;;;;5016123;28;20465;-78
2021/08/10 13:21:44;;;;;;;3.03;2.73;;;;;;;;;;5016236;28;20829;-80
2021/08/10 13:24:13;;;;;;;5.70;2.80;;;;;;;;;;4998139;28;20477;-81
2021/08/10 13:26:45;;;;;;;5.03;2.47;;;;;;;;;;5016034;28;20421;-79
2021/08/10 13:29:12;;;;;;;4.07;3.07;;;;;;;;;;4998557;28;20410;-79
2021/08/10 13:31:49;;;;;;;3.40;3.10;;;;;;;;;;5016059;28;20418;-79
2021/08/10 13:34:17;;;;;;;3.60;2.60;;;;;;;;;;5015423;28;20934;-78
2021/08/10 13:36:44;;;;;;;4.70;3.27;;;;;;;;;;5015774;28;20449;-78
2021/08/10 13:39:12;;;;;;;4.13;3.40;;;;;;;;;;5015605;28;20461;-78
2021/08/10 13:41:41;;;;;;;4.23;2.70;;;;;;;;;;5015780;28;20494;-80
2021/08/10 13:44:10;;;;;;;3.97;3.30;;;;;;;;;;5015523;28;20437;-80
2021/08/10 13:46:41;;;;;;;3.77;2.67;;;;;;;;;;5015530;28;20438;-79
2021/08/10 13:49:11;;;;;;;4.80;3.40;;;;;;;;;;5015575;28;20464;-81
2021/08/10 13:51:41;;;;;;;3.33;2.77;;;;;;;;;;5015486;28;20817;-79
2021/08/10 13:54:08;;;;;;;4.00;3.00;;;;;;;;;;5015176;28;20417;-79
2021/08/10 13:56:36;;;;;;;4.70;3.43;;;;;;;;;;5015526;28;20504;-79
2021/08/10 13:59:04;;;;;;;6.50;2.97;;;;;;;;;;5015428;28;20469;-80
2021/08/10 14:01:51;;;;;;;4.60;3.00;;;;;;;;;;5015560;28;20389;-79
2021/08/10 14:04:20;;;;;;;3.80;2.70;;;;;;;;;;5014961;28;20887;-80
2021/08/10 14:06:48;;;;;;;5.07;2.77;;;;;;;;;;5015514;28;20418;-79
2021/08/10 14:09:17;;;;;;;4.10;2.80;;;;;;;;;;5015244;28;20425;-80
2021/08/10 14:11:44;;;;;;;2.70;2.50;;;;;;;;;;5015118;28;20414;-77
2021/08/10 14:14:12;;;;;;;3.60;3.30;;;;;;;;;;5014816;28;20420;-78